sensor_id;sensor_type;location;lat;lon;timestamp;temperature;humidity
23744;DHT22;12052;53.478;10.182;2023-04-25T00:01:04;7.60;99.90
23744;DHT22;12052;53.478;10.182;2023-04-25T00:03:34;7.60;99.90
23744;DHT22;12052;53.478;10.182;2023-04-25T00:06:01;7.60;99.90
23744;DHT22;12052;53.478;10.182;2023-04-25T00:08:30;7.60;99.90
23744;DHT22;12052;53.478;10.182;2023-04-25T00:10:57;7.70;99.90
23744;DHT22;12052;53.478;10.182;2023-04-25T00:13:22;7.60;99.90
23744;DHT22;12052;53.478;10.182;2023-04-25T00:15:48;7.70;99.90
23744;DHT22;12052;53.478;10.182;2023-04-25T00:18:14;7.60;99.90
23744;DHT22;12052;53.478;10.182;2023-04-25T00:20:40;7.70;99.90
23744;DHT22;12052;53.478;10.182;2023-04-25T00:23:09;7.70;99.90
23744;DHT22;12052;53.478;10.182;2023-04-25T00:25:35;7.60;99.90
23744;DHT22;12052;53.478;10.182;2023-04-25T00:28:01;7.60;99.90
23744;DHT22;12052;53.478;10.182;2023-04-25T00:30:27;7.60;99.90
23744;DHT22;12052;53.478;10.182;2023-04-25T00:32:53;7.50;99.90
23744;DHT22;12052;53.478;10.182;2023-04-25T00:35:18;7.50;99.90
23744;DHT22;12052;53.478;10.182;2023-04-25T00:37:44;7.50;99.90
23744;DHT22;12052;53.478;10.182;2023-04-25T00:40:10;7.40;99.90
23744;DHT22;12052;53.478;10.182;2023-04-25T00:42:36;7.40;99.90
23744;DHT22;12052;53.478;10.182;2023-04-25T00:45:05;7.40;99.90
23744;DHT22;12052;53.478;10.182;2023-04-25T00:47:31;7.30;99.90
23744;DHT22;12052;53.478;10.182;2023-04-25T00:49:58;7.30;99.90
23744;DHT22;12052;53.478;10.182;2023-04-25T00:52:23;7.30;99.90
23744;DHT22;12052;53.478;10.182;2023-04-25T00:54:49;7.20;99.90
23744;DHT22;12052;53.478;10.182;2023-04-25T00:57:15;7.20;99.90
23744;DHT22;12052;53.478;10.182;2023-04-25T00:59:45;7.20;99.90
23744;DHT22;12052;53.478;10.182;2023-04-25T01:02:12;7.20;99.90
23744;DHT22;12052;53.478;10.182;2023-04-25T01:04:39;7.30;99.90
23744;DHT22;12052;53.478;10.182;2023-04-25T01:07:05;7.20;99.90
23744;DHT22;12052;53.478;10.182;2023-04-25T01:09:30;7.20;99.90
23744;DHT22;12052;53.478;10.182;2023-04-25T01:11:59;7.20;99.90
23744;DHT22;12052;53.478;10.182;2023-04-25T01:14:25;7.20;99.90
23744;DHT22;12052;53.478;10.182;2023-04-25T01:16:51;7.20;99.90
23744;DHT22;12052;53.478;10.182;2023-04-25T01:19:18;7.20;99.90
23744;DHT22;12052;53.478;10.182;2023-04-25T01:21:45;7.20;99.90
23744;DHT22;12052;53.478;10.182;2023-04-25T01:24:11;7.10;99.90
23744;DHT22;12052;53.478;10.182;2023-04-25T01:26:37;7.10;99.90
23744;DHT22;12052;53.478;10.182;2023-04-25T01:29:07;7.10;99.90
23744;DHT22;12052;53.478;10.182;2023-04-25T01:31:34;7.10;99.90
23744;DHT22;12052;53.478;10.182;2023-04-25T01:34:00;7.10;99.90
23744;DHT22;12052;53.478;10.182;2023-04-25T01:36:26;7.10;99.90
23744;DHT22;12052;53.478;10.182;2023-04-25T01:38:52;7.10;99.90
23744;DHT22;12052;53.478;10.182;2023-04-25T01:41:18;7.10;99.90
23744;DHT22;12052;53.478;10.182;2023-04-25T01:43:44;7.00;99.90
23744;DHT22;12052;53.478;10.182;2023-04-25T01:46:11;7.00;99.90
23744;DHT22;12052;53.478;10.182;2023-04-25T01:48:37;7.00;99.90
23744;DHT22;12052;53.478;10.182;2023-04-25T01:51:03;7.00;99.90
23744;DHT22;12052;53.478;10.182;2023-04-25T01:53:29;7.00;99.90
23744;DHT22;12052;53.478;10.182;2023-04-25T01:55:54;7.00;99.90
23744;DHT22;12052;53.478;10.182;2023-04-25T01:58:20;7.00;99.90
23744;DHT22;12052;53.478;10.182;2023-04-25T02:00:46;6.90;99.90
23744;DHT22;12052;53.478;10.182;2023-04-25T02:03:12;6.90;99.90
23744;DHT22;12052;53.478;10.182;2023-04-25T02:05:38;6.90;99.90
23744;DHT22;12052;53.478;10.182;2023-04-25T02:08:05;6.90;99.90
23744;DHT22;12052;53.478;10.182;2023-04-25T02:10:31;6.80;99.90
23744;DHT22;12052;53.478;10.182;2023-04-25T02:12:57;6.80;99.90
23744;DHT22;12052;53.478;10.182;2023-04-25T02:15:23;6.80;99.90
23744;DHT22;12052;53.478;10.182;2023-04-25T02:17:49;6.80;99.90
23744;DHT22;12052;53.478;10.182;2023-04-25T02:20:14;6.80;99.90
23744;DHT22;12052;53.478;10.182;2023-04-25T02:22:41;6.80;99.90
23744;DHT22;12052;53.478;10.182;2023-04-25T02:25:08;6.80;99.90
23744;DHT22;12052;53.478;10.182;2023-04-25T02:27:34;6.70;99.90
23744;DHT22;12052;53.478;10.182;2023-04-25T02:30:00;6.80;99.90
23744;DHT22;12052;53.478;10.182;2023-04-25T02:32:26;6.70;99.90
23744;DHT22;12052;53.478;10.182;2023-04-25T02:34:52;6.70;99.90
23744;DHT22;12052;53.478;10.182;2023-04-25T02:37:18;6.70;99.90
23744;DHT22;12052;53.478;10.182;2023-04-25T02:39:44;6.70;99.90
23744;DHT22;12052;53.478;10.182;2023-04-25T02:42:09;6.70;99.90
23744;DHT22;12052;53.478;10.182;2023-04-25T02:44:35;6.60;99.90
23744;DHT22;12052;53.478;10.182;2023-04-25T02:47:01;6.60;99.90
23744;DHT22;12052;53.478;10.182;2023-04-25T02:49:26;6.50;99.90
23744;DHT22;12052;53.478;10.182;2023-04-25T02:51:52;6.50;99.90
23744;DHT22;12052;53.478;10.182;2023-04-25T02:54:17;6.40;99.90
23744;DHT22;12052;53.478;10.182;2023-04-25T02:56:43;6.40;99.90
23744;DHT22;12052;53.478;10.182;2023-04-25T02:59:09;6.40;99.90
23744;DHT22;12052;53.478;10.182;2023-04-25T03:01:34;6.40;99.90
23744;DHT22;12052;53.478;10.182;2023-04-25T03:04:00;6.40;99.90
23744;DHT22;12052;53.478;10.182;2023-04-25T03:06:25;6.40;99.90
23744;DHT22;12052;53.478;10.182;2023-04-25T03:08:51;6.40;99.90
23744;DHT22;12052;53.478;10.182;2023-04-25T03:11:16;6.40;99.90
23744;DHT22;12052;53.478;10.182;2023-04-25T03:13:42;6.40;99.90
23744;DHT22;12052;53.478;10.182;2023-04-25T03:16:08;6.30;99.90
23744;DHT22;12052;53.478;10.182;2023-04-25T03:18:33;6.30;99.90
23744;DHT22;12052;53.478;10.182;2023-04-25T03:20:59;6.20;99.90
23744;DHT22;12052;53.478;10.182;2023-04-25T03:23:24;6.30;99.90
23744;DHT22;12052;53.478;10.182;2023-04-25T03:25:57;6.30;99.90
23744;DHT22;12052;53.478;10.182;2023-04-25T03:28:23;6.30;99.90
23744;DHT22;12052;53.478;10.182;2023-04-25T03:30:48;6.30;99.90
23744;DHT22;12052;53.478;10.182;2023-04-25T03:33:14;6.30;99.90
23744;DHT22;12052;53.478;10.182;2023-04-25T03:35:39;6.20;99.90
23744;DHT22;12052;53.478;10.182;2023-04-25T03:38:05;6.20;99.90
23744;DHT22;12052;53.478;10.182;2023-04-25T03:40:31;6.20;99.90
23744;DHT22;12052;53.478;10.182;2023-04-25T03:42:56;6.10;99.90
23744;DHT22;12052;53.478;10.182;2023-04-25T03:45:22;6.10;99.90
23744;DHT22;12052;53.478;10.182;2023-04-25T03:47:47;6.10;99.90
23744;DHT22;12052;53.478;10.182;2023-04-25T03:50:13;6.00;99.90
23744;DHT22;12052;53.478;10.182;2023-04-25T03:52:38;5.90;99.90
23744;DHT22;12052;53.478;10.182;2023-04-25T03:55:04;5.90;99.90
23744;DHT22;12052;53.478;10.182;2023-04-25T03:57:30;5.90;99.90
23744;DHT22;12052;53.478;10.182;2023-04-25T03:59:56;5.80;99.90
23744;DHT22;12052;53.478;10.182;2023-04-25T04:02:22;5.80;99.90
23744;DHT22;12052;53.478;10.182;2023-04-25T04:04:47;5.80;99.90
23744;DHT22;12052;53.478;10.182;2023-04-25T04:07:13;5.80;99.90
23744;DHT22;12052;53.478;10.182;2023-04-25T04:09:38;5.80;99.90
23744;DHT22;12052;53.478;10.182;2023-04-25T04:12:04;5.80;99.90
23744;DHT22;12052;53.478;10.182;2023-04-25T04:14:30;5.80;99.90
23744;DHT22;12052;53.478;10.182;2023-04-25T04:16:55;5.80;99.90
23744;DHT22;12052;53.478;10.182;2023-04-25T04:19:21;5.80;99.90
23744;DHT22;12052;53.478;10.182;2023-04-25T04:21:47;5.70;99.90
23744;DHT22;12052;53.478;10.182;2023-04-25T04:24:12;5.70;99.90
23744;DHT22;12052;53.478;10.182;2023-04-25T04:26:38;5.70;99.90
23744;DHT22;12052;53.478;10.182;2023-04-25T04:29:04;5.70;99.90
23744;DHT22;12052;53.478;10.182;2023-04-25T04:31:30;5.60;99.90
23744;DHT22;12052;53.478;10.182;2023-04-25T04:33:56;5.70;99.90
23744;DHT22;12052;53.478;10.182;2023-04-25T04:36:21;5.70;99.90
23744;DHT22;12052;53.478;10.182;2023-04-25T04:38:48;5.70;99.90
23744;DHT22;12052;53.478;10.182;2023-04-25T04:41:14;5.60;99.90
23744;DHT22;12052;53.478;10.182;2023-04-25T04:43:40;5.60;99.90
23744;DHT22;12052;53.478;10.182;2023-04-25T04:46:05;5.60;99.90
23744;DHT22;12052;53.478;10.182;2023-04-25T04:48:31;5.60;99.90
23744;DHT22;12052;53.478;10.182;2023-04-25T04:51:00;5.60;99.90
23744;DHT22;12052;53.478;10.182;2023-04-25T04:53:26;5.60;99.90
23744;DHT22;12052;53.478;10.182;2023-04-25T04:55:52;5.60;99.90
23744;DHT22;12052;53.478;10.182;2023-04-25T04:58:18;5.60;99.90
23744;DHT22;12052;53.478;10.182;2023-04-25T05:00:44;5.60;99.90
23744;DHT22;12052;53.478;10.182;2023-04-25T05:03:09;5.60;99.90
23744;DHT22;12052;53.478;10.182;2023-04-25T05:05:36;5.70;99.90
23744;DHT22;12052;53.478;10.182;2023-04-25T05:08:05;5.80;99.90
23744;DHT22;12052;53.478;10.182;2023-04-25T05:10:31;5.90;99.90
23744;DHT22;12052;53.478;10.182;2023-04-25T05:12:57;5.90;99.90
23744;DHT22;12052;53.478;10.182;2023-04-25T05:15:22;5.90;99.90
23744;DHT22;12052;53.478;10.182;2023-04-25T05:17:48;5.90;99.90
23744;DHT22;12052;53.478;10.182;2023-04-25T05:20:13;6.00;99.90
23744;DHT22;12052;53.478;10.182;2023-04-25T05:22:39;6.10;99.90
23744;DHT22;12052;53.478;10.182;2023-04-25T05:25:07;6.10;99.90
23744;DHT22;12052;53.478;10.182;2023-04-25T05:27:33;6.10;99.90
23744;DHT22;12052;53.478;10.182;2023-04-25T05:29:59;6.10;99.90
23744;DHT22;12052;53.478;10.182;2023-04-25T05:32:24;6.10;99.90
23744;DHT22;12052;53.478;10.182;2023-04-25T05:34:50;6.00;99.90
23744;DHT22;12052;53.478;10.182;2023-04-25T05:37:17;6.10;99.90
23744;DHT22;12052;53.478;10.182;2023-04-25T05:39:42;6.10;99.90
23744;DHT22;12052;53.478;10.182;2023-04-25T05:42:08;6.10;99.90
23744;DHT22;12052;53.478;10.182;2023-04-25T05:44:34;6.00;99.90
23744;DHT22;12052;53.478;10.182;2023-04-25T05:46:59;5.60;99.90
23744;DHT22;12052;53.478;10.182;2023-04-25T05:49:25;5.50;99.90
23744;DHT22;12052;53.478;10.182;2023-04-25T05:51:50;5.50;99.90
23744;DHT22;12052;53.478;10.182;2023-04-25T05:54:16;5.50;99.90
23744;DHT22;12052;53.478;10.182;2023-04-25T05:56:42;5.50;99.90
23744;DHT22;12052;53.478;10.182;2023-04-25T05:59:07;5.50;99.90
23744;DHT22;12052;53.478;10.182;2023-04-25T06:01:33;5.60;99.90
23744;DHT22;12052;53.478;10.182;2023-04-25T06:03:58;5.70;99.90
23744;DHT22;12052;53.478;10.182;2023-04-25T06:06:24;5.80;99.90
23744;DHT22;12052;53.478;10.182;2023-04-25T06:08:49;5.90;99.90
23744;DHT22;12052;53.478;10.182;2023-04-25T06:11:15;6.00;99.90
23744;DHT22;12052;53.478;10.182;2023-04-25T06:13:43;6.00;99.90
23744;DHT22;12052;53.478;10.182;2023-04-25T06:16:08;6.00;99.90
23744;DHT22;12052;53.478;10.182;2023-04-25T06:18:34;6.00;99.90
23744;DHT22;12052;53.478;10.182;2023-04-25T06:21:00;6.10;99.90
23744;DHT22;12052;53.478;10.182;2023-04-25T06:23:25;6.10;99.90
23744;DHT22;12052;53.478;10.182;2023-04-25T06:25:51;6.20;99.90
23744;DHT22;12052;53.478;10.182;2023-04-25T06:28:16;6.20;99.90
23744;DHT22;12052;53.478;10.182;2023-04-25T06:30:42;6.20;99.90
23744;DHT22;12052;53.478;10.182;2023-04-25T06:33:08;6.30;99.90
23744;DHT22;12052;53.478;10.182;2023-04-25T06:35:34;6.30;99.90
23744;DHT22;12052;53.478;10.182;2023-04-25T06:37:59;6.40;99.90
23744;DHT22;12052;53.478;10.182;2023-04-25T06:40:25;6.40;99.90
23744;DHT22;12052;53.478;10.182;2023-04-25T06:42:51;6.50;99.90
23744;DHT22;12052;53.478;10.182;2023-04-25T06:45:16;6.50;99.90
23744;DHT22;12052;53.478;10.182;2023-04-25T06:47:42;6.50;99.90
23744;DHT22;12052;53.478;10.182;2023-04-25T06:50:08;6.50;99.90
23744;DHT22;12052;53.478;10.182;2023-04-25T06:52:34;6.50;99.90
23744;DHT22;12052;53.478;10.182;2023-04-25T06:54:59;6.60;99.90
23744;DHT22;12052;53.478;10.182;2023-04-25T06:57:25;6.50;99.90
23744;DHT22;12052;53.478;10.182;2023-04-25T06:59:51;6.40;99.90
23744;DHT22;12052;53.478;10.182;2023-04-25T07:02:16;6.40;99.90
23744;DHT22;12052;53.478;10.182;2023-04-25T07:04:42;6.50;99.90
23744;DHT22;12052;53.478;10.182;2023-04-25T07:07:07;6.50;99.90
23744;DHT22;12052;53.478;10.182;2023-04-25T07:09:33;6.60;99.90
23744;DHT22;12052;53.478;10.182;2023-04-25T07:11:59;6.90;99.90
23744;DHT22;12052;53.478;10.182;2023-04-25T07:14:27;6.90;99.90
23744;DHT22;12052;53.478;10.182;2023-04-25T07:16:52;6.90;99.90
23744;DHT22;12052;53.478;10.182;2023-04-25T07:19:18;6.90;99.90
23744;DHT22;12052;53.478;10.182;2023-04-25T07:21:43;6.90;99.90
23744;DHT22;12052;53.478;10.182;2023-04-25T07:24:09;6.90;99.90
23744;DHT22;12052;53.478;10.182;2023-04-25T07:26:35;6.90;99.90
23744;DHT22;12052;53.478;10.182;2023-04-25T07:29:00;7.00;99.90
23744;DHT22;12052;53.478;10.182;2023-04-25T07:31:26;7.00;99.90
23744;DHT22;12052;53.478;10.182;2023-04-25T07:33:52;7.20;99.90
23744;DHT22;12052;53.478;10.182;2023-04-25T07:36:18;7.30;99.90
23744;DHT22;12052;53.478;10.182;2023-04-25T07:38:43;7.30;99.90
23744;DHT22;12052;53.478;10.182;2023-04-25T07:41:09;7.40;99.90
23744;DHT22;12052;53.478;10.182;2023-04-25T07:43:35;7.50;99.90
23744;DHT22;12052;53.478;10.182;2023-04-25T07:46:01;7.40;99.90
23744;DHT22;12052;53.478;10.182;2023-04-25T07:48:27;7.40;99.90
23744;DHT22;12052;53.478;10.182;2023-04-25T07:50:53;7.30;99.90
23744;DHT22;12052;53.478;10.182;2023-04-25T07:53:19;7.30;99.90
23744;DHT22;12052;53.478;10.182;2023-04-25T07:55:44;7.30;99.90
23744;DHT22;12052;53.478;10.182;2023-04-25T07:58:11;7.30;99.90
23744;DHT22;12052;53.478;10.182;2023-04-25T08:00:36;7.30;99.90
23744;DHT22;12052;53.478;10.182;2023-04-25T08:03:03;7.30;99.90
23744;DHT22;12052;53.478;10.182;2023-04-25T08:05:29;7.30;99.90
23744;DHT22;12052;53.478;10.182;2023-04-25T08:07:54;7.40;99.90
23744;DHT22;12052;53.478;10.182;2023-04-25T08:10:22;7.60;99.90
23744;DHT22;12052;53.478;10.182;2023-04-25T08:12:48;7.70;99.90
23744;DHT22;12052;53.478;10.182;2023-04-25T08:15:14;7.80;99.90
23744;DHT22;12052;53.478;10.182;2023-04-25T08:17:40;7.80;99.90
23744;DHT22;12052;53.478;10.182;2023-04-25T08:20:06;8.00;99.90
23744;DHT22;12052;53.478;10.182;2023-04-25T08:22:32;8.00;99.90
23744;DHT22;12052;53.478;10.182;2023-04-25T08:24:57;8.10;99.90
23744;DHT22;12052;53.478;10.182;2023-04-25T08:27:23;8.30;99.90
23744;DHT22;12052;53.478;10.182;2023-04-25T08:29:49;8.40;99.90
23744;DHT22;12052;53.478;10.182;2023-04-25T08:32:15;8.60;99.90
23744;DHT22;12052;53.478;10.182;2023-04-25T08:34:41;8.70;99.90
23744;DHT22;12052;53.478;10.182;2023-04-25T08:37:08;8.60;99.90
23744;DHT22;12052;53.478;10.182;2023-04-25T08:39:35;8.30;99.90
23744;DHT22;12052;53.478;10.182;2023-04-25T08:42:02;8.30;99.90
23744;DHT22;12052;53.478;10.182;2023-04-25T08:44:33;8.20;99.90
23744;DHT22;12052;53.478;10.182;2023-04-25T08:46:59;8.20;99.90
23744;DHT22;12052;53.478;10.182;2023-04-25T08:49:25;8.10;99.90
23744;DHT22;12052;53.478;10.182;2023-04-25T08:51:52;8.10;99.90
23744;DHT22;12052;53.478;10.182;2023-04-25T08:54:20;8.30;99.90
23744;DHT22;12052;53.478;10.182;2023-04-25T08:56:48;8.20;99.90
23744;DHT22;12052;53.478;10.182;2023-04-25T08:59:14;8.30;99.90
23744;DHT22;12052;53.478;10.182;2023-04-25T09:01:40;8.30;99.90
23744;DHT22;12052;53.478;10.182;2023-04-25T09:04:06;8.70;99.90
23744;DHT22;12052;53.478;10.182;2023-04-25T09:06:32;9.00;99.90
23744;DHT22;12052;53.478;10.182;2023-04-25T09:09:04;9.00;99.90
23744;DHT22;12052;53.478;10.182;2023-04-25T09:11:31;8.80;99.90
23744;DHT22;12052;53.478;10.182;2023-04-25T09:14:13;8.80;99.90
23744;DHT22;12052;53.478;10.182;2023-04-25T09:16:59;8.60;99.90
23744;DHT22;12052;53.478;10.182;2023-04-25T09:19:30;8.30;99.90
23744;DHT22;12052;53.478;10.182;2023-04-25T09:22:00;8.10;99.90
23744;DHT22;12052;53.478;10.182;2023-04-25T09:24:41;7.80;99.90
23744;DHT22;12052;53.478;10.182;2023-04-25T09:27:13;7.60;99.90
23744;DHT22;12052;53.478;10.182;2023-04-25T09:29:43;7.40;99.90
23744;DHT22;12052;53.478;10.182;2023-04-25T09:32:22;7.50;99.90
23744;DHT22;12052;53.478;10.182;2023-04-25T09:34:56;7.40;99.90
23744;DHT22;12052;53.478;10.182;2023-04-25T09:37:29;7.30;99.90
23744;DHT22;12052;53.478;10.182;2023-04-25T09:39:59;7.10;99.90
23744;DHT22;12052;53.478;10.182;2023-04-25T09:42:28;7.10;99.90
23744;DHT22;12052;53.478;10.182;2023-04-25T09:44:55;7.20;99.90
23744;DHT22;12052;53.478;10.182;2023-04-25T09:47:23;7.30;99.90
23744;DHT22;12052;53.478;10.182;2023-04-25T09:49:50;7.30;99.90
23744;DHT22;12052;53.478;10.182;2023-04-25T09:52:18;7.60;99.90
23744;DHT22;12052;53.478;10.182;2023-04-25T09:54:45;7.90;99.90
23744;DHT22;12052;53.478;10.182;2023-04-25T09:57:16;8.30;99.90
23744;DHT22;12052;53.478;10.182;2023-04-25T09:59:50;8.40;99.90
23744;DHT22;12052;53.478;10.182;2023-04-25T10:02:18;8.30;99.90
23744;DHT22;12052;53.478;10.182;2023-04-25T10:04:48;8.00;99.90
23744;DHT22;12052;53.478;10.182;2023-04-25T10:07:14;7.80;99.90
23744;DHT22;12052;53.478;10.182;2023-04-25T10:09:40;7.80;99.90
23744;DHT22;12052;53.478;10.182;2023-04-25T10:12:07;7.80;99.90
23744;DHT22;12052;53.478;10.182;2023-04-25T10:14:34;7.80;99.90
23744;DHT22;12052;53.478;10.182;2023-04-25T10:17:00;7.90;99.90
23744;DHT22;12052;53.478;10.182;2023-04-25T10:19:26;8.10;99.90
23744;DHT22;12052;53.478;10.182;2023-04-25T10:21:54;8.40;99.90
23744;DHT22;12052;53.478;10.182;2023-04-25T10:24:21;8.50;99.90
23744;DHT22;12052;53.478;10.182;2023-04-25T10:26:47;8.50;99.90
23744;DHT22;12052;53.478;10.182;2023-04-25T10:29:24;8.50;99.90
23744;DHT22;12052;53.478;10.182;2023-04-25T10:31:51;8.40;99.90
23744;DHT22;12052;53.478;10.182;2023-04-25T10:34:17;8.60;99.90
23744;DHT22;12052;53.478;10.182;2023-04-25T10:36:52;9.00;99.90
23744;DHT22;12052;53.478;10.182;2023-04-25T10:39:27;9.40;99.90
23744;DHT22;12052;53.478;10.182;2023-04-25T10:41:59;9.30;99.90
23744;DHT22;12052;53.478;10.182;2023-04-25T10:44:28;9.00;99.90
23744;DHT22;12052;53.478;10.182;2023-04-25T10:46:59;8.80;99.90
23744;DHT22;12052;53.478;10.182;2023-04-25T10:49:30;8.90;99.90
23744;DHT22;12052;53.478;10.182;2023-04-25T10:52:24;9.20;99.90
23744;DHT22;12052;53.478;10.182;2023-04-25T10:54:56;9.50;99.90
23744;DHT22;12052;53.478;10.182;2023-04-25T10:57:39;9.60;99.90
23744;DHT22;12052;53.478;10.182;2023-04-25T11:00:14;9.30;99.90
23744;DHT22;12052;53.478;10.182;2023-04-25T11:02:45;9.20;99.90
23744;DHT22;12052;53.478;10.182;2023-04-25T11:07:54;9.10;99.90
23744;DHT22;12052;53.478;10.182;2023-04-25T11:10:26;9.20;99.90
23744;DHT22;12052;53.478;10.182;2023-04-25T11:12:52;9.60;99.90
23744;DHT22;12052;53.478;10.182;2023-04-25T11:15:17;9.80;99.90
23744;DHT22;12052;53.478;10.182;2023-04-25T11:17:43;9.90;99.90
23744;DHT22;12052;53.478;10.182;2023-04-25T11:20:12;9.50;99.90
23744;DHT22;12052;53.478;10.182;2023-04-25T11:22:39;9.20;99.90
23744;DHT22;12052;53.478;10.182;2023-04-25T11:25:09;9.30;99.90
23744;DHT22;12052;53.478;10.182;2023-04-25T11:27:38;9.20;99.90
23744;DHT22;12052;53.478;10.182;2023-04-25T11:30:11;9.20;99.90
23744;DHT22;12052;53.478;10.182;2023-04-25T11:32:36;9.30;99.90
23744;DHT22;12052;53.478;10.182;2023-04-25T11:35:02;9.30;99.90
23744;DHT22;12052;53.478;10.182;2023-04-25T11:37:28;9.20;99.90
23744;DHT22;12052;53.478;10.182;2023-04-25T11:39:54;9.60;99.90
23744;DHT22;12052;53.478;10.182;2023-04-25T11:42:19;9.60;99.90
23744;DHT22;12052;53.478;10.182;2023-04-25T11:44:45;9.70;99.90
23744;DHT22;12052;53.478;10.182;2023-04-25T11:47:11;10.00;99.90
23744;DHT22;12052;53.478;10.182;2023-04-25T11:49:37;10.40;99.90
23744;DHT22;12052;53.478;10.182;2023-04-25T11:52:02;10.30;99.90
23744;DHT22;12052;53.478;10.182;2023-04-25T11:54:28;10.20;99.90
23744;DHT22;12052;53.478;10.182;2023-04-25T11:56:54;9.40;99.90
23744;DHT22;12052;53.478;10.182;2023-04-25T11:59:23;8.30;99.90
23744;DHT22;12052;53.478;10.182;2023-04-25T12:01:49;7.40;99.90
23744;DHT22;12052;53.478;10.182;2023-04-25T12:04:20;7.40;99.90
23744;DHT22;12052;53.478;10.182;2023-04-25T12:06:51;7.30;99.90
23744;DHT22;12052;53.478;10.182;2023-04-25T12:09:19;7.50;99.90
23744;DHT22;12052;53.478;10.182;2023-04-25T12:11:53;7.60;99.90
23744;DHT22;12052;53.478;10.182;2023-04-25T12:14:27;7.80;99.90
23744;DHT22;12052;53.478;10.182;2023-04-25T12:17:01;8.00;99.90
23744;DHT22;12052;53.478;10.182;2023-04-25T12:19:33;8.10;99.90
23744;DHT22;12052;53.478;10.182;2023-04-25T12:22:00;8.40;99.90
23744;DHT22;12052;53.478;10.182;2023-04-25T12:24:27;8.80;99.90
23744;DHT22;12052;53.478;10.182;2023-04-25T12:27:00;9.00;99.90
23744;DHT22;12052;53.478;10.182;2023-04-25T12:29:28;9.30;99.90
23744;DHT22;12052;53.478;10.182;2023-04-25T12:31:55;9.50;99.90
23744;DHT22;12052;53.478;10.182;2023-04-25T12:34:22;9.60;99.90
23744;DHT22;12052;53.478;10.182;2023-04-25T12:36:49;9.80;99.90
23744;DHT22;12052;53.478;10.182;2023-04-25T12:39:19;9.90;99.90
23744;DHT22;12052;53.478;10.182;2023-04-25T12:41:47;10.20;99.90
23744;DHT22;12052;53.478;10.182;2023-04-25T12:44:13;10.50;99.90
23744;DHT22;12052;53.478;10.182;2023-04-25T12:46:39;10.40;99.90
23744;DHT22;12052;53.478;10.182;2023-04-25T12:49:06;10.30;99.90
23744;DHT22;12052;53.478;10.182;2023-04-25T12:51:33;10.10;99.90
23744;DHT22;12052;53.478;10.182;2023-04-25T12:53:59;9.70;99.90
23744;DHT22;12052;53.478;10.182;2023-04-25T12:56:28;9.40;99.90
23744;DHT22;12052;53.478;10.182;2023-04-25T12:58:54;9.40;99.90
23744;DHT22;12052;53.478;10.182;2023-04-25T13:01:20;9.30;99.90
23744;DHT22;12052;53.478;10.182;2023-04-25T13:03:46;9.60;99.90
23744;DHT22;12052;53.478;10.182;2023-04-25T13:06:13;9.80;99.90
23744;DHT22;12052;53.478;10.182;2023-04-25T13:08:38;10.00;99.90
23744;DHT22;12052;53.478;10.182;2023-04-25T13:11:05;10.30;99.90
23744;DHT22;12052;53.478;10.182;2023-04-25T13:13:31;10.10;99.90
23744;DHT22;12052;53.478;10.182;2023-04-25T13:15:58;9.90;99.90
23744;DHT22;12052;53.478;10.182;2023-04-25T13:18:23;9.70;99.90
23744;DHT22;12052;53.478;10.182;2023-04-25T13:20:52;9.50;99.90
23744;DHT22;12052;53.478;10.182;2023-04-25T13:23:18;9.20;99.90
23744;DHT22;12052;53.478;10.182;2023-04-25T13:25:45;9.10;99.90
23744;DHT22;12052;53.478;10.182;2023-04-25T13:28:11;9.10;99.90
23744;DHT22;12052;53.478;10.182;2023-04-25T13:30:36;9.40;99.90
23744;DHT22;12052;53.478;10.182;2023-04-25T13:33:02;9.50;99.90
23744;DHT22;12052;53.478;10.182;2023-04-25T13:35:29;9.60;99.90
23744;DHT22;12052;53.478;10.182;2023-04-25T13:37:55;9.20;99.90
23744;DHT22;12052;53.478;10.182;2023-04-25T13:40:21;8.70;99.90
23744;DHT22;12052;53.478;10.182;2023-04-25T13:42:47;8.00;99.90
23744;DHT22;12052;53.478;10.182;2023-04-25T13:45:13;7.70;99.90
23744;DHT22;12052;53.478;10.182;2023-04-25T13:47:39;7.50;99.90
23744;DHT22;12052;53.478;10.182;2023-04-25T13:50:05;7.50;99.90
23744;DHT22;12052;53.478;10.182;2023-04-25T13:52:32;7.60;99.90
23744;DHT22;12052;53.478;10.182;2023-04-25T13:54:58;7.80;99.90
23744;DHT22;12052;53.478;10.182;2023-04-25T13:57:24;8.00;99.90
23744;DHT22;12052;53.478;10.182;2023-04-25T13:59:50;8.30;99.90
23744;DHT22;12052;53.478;10.182;2023-04-25T14:02:16;8.60;99.90
23744;DHT22;12052;53.478;10.182;2023-04-25T14:04:42;8.90;99.90
23744;DHT22;12052;53.478;10.182;2023-04-25T14:07:07;9.10;99.90
23744;DHT22;12052;53.478;10.182;2023-04-25T14:09:33;9.30;99.90
23744;DHT22;12052;53.478;10.182;2023-04-25T14:11:59;8.50;99.90
23744;DHT22;12052;53.478;10.182;2023-04-25T14:14:25;7.50;99.90
23744;DHT22;12052;53.478;10.182;2023-04-25T14:16:51;6.90;99.90
23744;DHT22;12052;53.478;10.182;2023-04-25T14:19:19;6.60;99.90
23744;DHT22;12052;53.478;10.182;2023-04-25T14:21:45;6.40;99.90
23744;DHT22;12052;53.478;10.182;2023-04-25T14:24:12;6.50;99.90
23744;DHT22;12052;53.478;10.182;2023-04-25T14:26:38;6.50;99.90
23744;DHT22;12052;53.478;10.182;2023-04-25T14:29:05;6.60;99.90
23744;DHT22;12052;53.478;10.182;2023-04-25T14:31:32;6.70;99.90
23744;DHT22;12052;53.478;10.182;2023-04-25T14:33:57;7.00;99.90
23744;DHT22;12052;53.478;10.182;2023-04-25T14:36:23;7.20;99.90
23744;DHT22;12052;53.478;10.182;2023-04-25T14:38:48;7.50;99.90
23744;DHT22;12052;53.478;10.182;2023-04-25T14:41:14;7.70;99.90
23744;DHT22;12052;53.478;10.182;2023-04-25T14:43:40;7.80;99.90
23744;DHT22;12052;53.478;10.182;2023-04-25T14:46:06;8.00;99.90
23744;DHT22;12052;53.478;10.182;2023-04-25T14:48:32;8.30;99.90
23744;DHT22;12052;53.478;10.182;2023-04-25T14:50:59;8.20;99.90
23744;DHT22;12052;53.478;10.182;2023-04-25T14:53:25;8.20;99.90
23744;DHT22;12052;53.478;10.182;2023-04-25T14:55:50;8.20;99.90
23744;DHT22;12052;53.478;10.182;2023-04-25T14:58:16;8.10;99.90
23744;DHT22;12052;53.478;10.182;2023-04-25T15:00:42;8.00;99.90
23744;DHT22;12052;53.478;10.182;2023-04-25T15:03:08;8.00;99.90
23744;DHT22;12052;53.478;10.182;2023-04-25T15:05:34;7.90;99.90
23744;DHT22;12052;53.478;10.182;2023-04-25T15:08:01;8.10;99.90
23744;DHT22;12052;53.478;10.182;2023-04-25T15:10:27;8.20;99.90
23744;DHT22;12052;53.478;10.182;2023-04-25T15:12:53;8.50;99.90
23744;DHT22;12052;53.478;10.182;2023-04-25T15:15:19;8.60;99.90
23744;DHT22;12052;53.478;10.182;2023-04-25T15:17:44;8.80;99.90
23744;DHT22;12052;53.478;10.182;2023-04-25T15:20:11;9.00;99.90
23744;DHT22;12052;53.478;10.182;2023-04-25T15:22:42;9.00;99.90
23744;DHT22;12052;53.478;10.182;2023-04-25T15:25:09;8.90;99.90
23744;DHT22;12052;53.478;10.182;2023-04-25T15:27:38;8.90;99.90
23744;DHT22;12052;53.478;10.182;2023-04-25T15:30:11;8.80;99.90